Time;durP1;ratioP1;P1;durP2;ratioP2;P2;SDS_P1;SDS_P2;PMS_P1;PMS_P2;Temp;Humidity;BMP_temperature;BMP_pressure;BME280_temperature;BME280_humidity;BME280_pressure;Samples;Min_cycle;Max_cycle;Signal;HPM_P1;HPM_P2
2023/03/20 00:00:48;;;;;;;0.50;0.50;;;8.60;99.90;;;;;;6214198;23;20755;-74
2023/03/20 00:03:14;;;;;;;0.50;0.50;;;8.50;99.90;;;;;;6216388;23;20016;-74
2023/03/20 00:05:40;;;;;;;0.30;0.30;;;8.60;99.90;;;;;;6217105;23;20008;-74
2023/03/20 00:08:07;;;;;;;0.40;0.40;;;8.60;99.90;;;;;;6216235;23;20443;-74
2023/03/20 00:10:41;;;;;;;0.43;0.43;;;8.60;99.90;;;;;;6216165;23;20080;-74
2023/03/20 00:13:17;;;;;;;0.40;0.40;;;8.60;99.90;;;;;;6214197;23;20021;-74
2023/03/20 00:15:43;;;;;;;0.30;0.30;;;8.60;99.90;;;;;;6214206;23;20012;-74
2023/03/20 00:18:21;;;;;;;0.40;0.40;;;8.60;99.90;;;;;;6215843;23;20444;-74
2023/03/20 00:20:48;;;;;;;0.47;0.47;;;8.70;99.90;;;;;;6215718;23;20019;-74
2023/03/20 00:23:15;;;;;;;0.43;0.43;;;8.70;99.90;;;;;;6214238;23;20087;-74
2023/03/20 00:25:42;;;;;;;0.40;0.40;;;8.70;99.90;;;;;;6214170;23;20012;-74
2023/03/20 00:28:37;;;;;;;0.35;0.35;;;8.70;99.90;;;;;;6216095;23;20008;-74
2023/03/20 00:31:11;;;;;;;0.40;0.40;;;8.70;99.90;;;;;;6214234;23;20050;-74
2023/03/20 00:33:37;;;;;;;0.40;0.40;;;8.60;99.90;;;;;;6214340;23;20048;-74
2023/03/20 00:36:05;;;;;;;0.40;0.40;;;8.70;99.90;;;;;;6216042;23;20009;-74
2023/03/20 00:38:30;;;;;;;0.50;0.50;;;8.70;99.90;;;;;;6214198;23;20016;-74
2023/03/20 00:40:56;;;;;;;0.40;0.40;;;8.70;99.90;;;;;;6214530;23;20325;-74
2023/03/20 00:43:23;;;;;;;0.40;0.40;;;8.60;99.90;;;;;;6215064;23;20012;-74
2023/03/20 00:45:48;;;;;;;0.40;0.40;;;8.60;99.90;;;;;;6216123;23;20023;-74
2023/03/20 00:48:15;;;;;;;0.40;0.40;;;8.50;99.90;;;;;;6218068;23;20012;-74
2023/03/20 00:50:41;;;;;;;0.40;0.40;;;8.50;99.90;;;;;;6217917;23;20036;-74
2023/03/20 00:53:10;;;;;;;0.43;0.43;;;8.50;99.90;;;;;;6217826;23;20437;-74
2023/03/20 00:55:37;;;;;;;0.40;0.40;;;8.50;99.90;;;;;;6217269;23;20079;-74
2023/03/20 00:58:04;;;;;;;0.50;0.50;;;8.40;99.90;;;;;;6217982;23;20013;-74
2023/03/20 01:00:39;;;;;;;0.40;0.40;;;8.50;99.90;;;;;;6217922;23;20005;-74
2023/03/20 01:03:16;;;;;;;0.45;0.45;;;8.40;99.90;;;;;;6217906;23;20139;-74
2023/03/20 01:05:43;;;;;;;0.40;0.40;;;8.40;99.90;;;;;;6215965;23;20130;-74
2023/03/20 01:08:15;;;;;;;0.50;0.50;;;8.30;99.90;;;;;;6217824;23;20013;-74
2023/03/20 01:10:43;;;;;;;0.47;0.47;;;8.30;99.90;;;;;;6217866;23;20096;-74
2023/03/20 01:13:25;;;;;;;0.40;0.40;;;8.40;99.90;;;;;;6215981;23;20016;-74
2023/03/20 01:15:52;;;;;;;0.50;0.50;;;8.30;99.90;;;;;;6217834;23;20005;-74
2023/03/20 01:18:20;;;;;;;0.40;0.40;;;8.30;99.90;;;;;;6216135;23;20345;-74
2023/03/20 01:20:46;;;;;;;0.40;0.40;;;8.20;99.90;;;;;;6215919;23;20024;-74
2023/03/20 01:23:15;;;;;;;0.60;0.60;;;8.30;99.90;;;;;;6216427;23;20399;-74
2023/03/20 01:25:41;;;;;;;0.50;0.50;;;8.30;99.90;;;;;;6215853;23;20348;-73
2023/03/20 01:28:18;;;;;;;0.47;0.47;;;8.30;99.90;;;;;;6215798;23;20513;-73
2023/03/20 01:30:58;;;;;;;0.50;0.50;;;8.20;99.90;;;;;;6216094;23;20497;-73
2023/03/20 01:33:33;;;;;;;0.40;0.40;;;8.30;99.90;;;;;;6216342;23;20013;-74
2023/03/20 01:35:59;;;;;;;0.60;0.60;;;8.20;99.90;;;;;;6217105;23;20455;-74
2023/03/20 01:38:26;;;;;;;0.40;0.40;;;8.20;99.90;;;;;;6217565;23;20012;-74
2023/03/20 01:41:04;;;;;;;0.50;0.50;;;8.20;99.90;;;;;;6217454;23;20005;-74
2023/03/20 01:43:34;;;;;;;0.50;0.50;;;8.30;99.90;;;;;;6215549;23;20133;-74
2023/03/20 01:46:17;;;;;;;0.50;0.50;;;8.30;99.90;;;;;;6190458;23;20013;-74
2023/03/20 01:48:49;;;;;;;0.55;0.55;;;8.30;99.90;;;;;;6215649;23;20074;-74
2023/03/20 01:51:20;;;;;;;0.63;0.63;;;8.20;99.90;;;;;;6217410;23;20032;-74
2023/03/20 01:53:48;;;;;;;0.60;0.60;;;8.20;99.90;;;;;;6215488;23;20053;-74
2023/03/20 01:56:16;;;;;;;0.55;0.55;;;8.20;99.90;;;;;;6216658;23;20017;-74
2023/03/20 01:58:47;;;;;;;0.63;0.63;;;8.10;99.90;;;;;;6217341;23;20051;-74
2023/03/20 02:01:13;;;;;;;0.55;0.55;;;8.10;99.90;;;;;;6217429;23;20013;-74
2023/03/20 02:03:44;;;;;;;0.55;0.55;;;8.10;99.90;;;;;;6215639;23;20013;-74
2023/03/20 02:06:10;;;;;;;0.50;0.50;;;8.10;99.90;;;;;;6217294;23;20043;-74
2023/03/20 02:08:42;;;;;;;0.70;0.70;;;8.10;99.90;;;;;;6217419;23;20012;-74
2023/03/20 02:11:08;;;;;;;0.50;0.50;;;8.10;99.90;;;;;;6215371;23;20012;-74
2023/03/20 02:13:34;;;;;;;0.60;0.60;;;8.10;99.90;;;;;;6217118;23;20466;-74
2023/03/20 02:16:15;;;;;;;0.60;0.60;;;8.10;99.90;;;;;;6215474;23;20069;-74
2023/03/20 02:18:43;;;;;;;0.52;0.52;;;8.20;99.90;;;;;;6215435;23;20053;-74
2023/03/20 02:21:21;;;;;;;0.50;0.50;;;8.10;99.90;;;;;;6216977;23;20012;-74
2023/03/20 02:23:52;;;;;;;0.57;0.57;;;8.10;99.90;;;;;;6215192;23;20386;-74
2023/03/20 02:26:39;;;;;;;0.50;0.50;;;8.10;99.90;;;;;;6215168;23;20095;-74
2023/03/20 02:29:20;;;;;;;0.50;0.50;;;8.20;99.90;;;;;;6215088;23;20048;-74
2023/03/20 02:31:58;;;;;;;0.43;0.43;;;8.20;99.90;;;;;;6215105;23;20058;-75
2023/03/20 02:34:42;;;;;;;0.60;0.60;;;8.10;99.90;;;;;;6215061;23;20469;-74
2023/03/20 02:37:29;;;;;;;0.60;0.60;;;8.20;99.90;;;;;;6216817;23;20012;-74
2023/03/20 02:40:01;;;;;;;0.43;0.43;;;8.20;99.90;;;;;;6214953;23;20023;-74
2023/03/20 02:42:50;;;;;;;0.50;0.50;;;8.20;99.90;;;;;;6214941;23;20016;-74
2023/03/20 02:45:25;;;;;;;0.60;0.60;;;8.10;99.90;;;;;;6240334;23;20477;-74
2023/03/20 02:48:32;;;;;;;0.50;0.50;;;8.10;99.90;;;;;;6214978;23;20012;-74
2023/03/20 02:51:06;;;;;;;0.50;0.50;;;8.10;99.90;;;;;;6215468;23;20008;-74
2023/03/20 02:53:51;;;;;;;0.52;0.52;;;8.10;99.90;;;;;;6216842;23;20013;-74
2023/03/20 02:56:31;;;;;;;0.40;0.40;;;8.10;99.90;;;;;;6216071;23;20048;-74
2023/03/20 02:59:05;;;;;;;0.47;0.47;;;8.10;99.90;;;;;;6214750;23;20016;-74
2023/03/20 03:01:57;;;;;;;0.60;0.60;;;8.10;99.90;;;;;;6214788;23;20012;-74
2023/03/20 03:04:27;;;;;;;0.60;0.60;;;8.10;99.90;;;;;;6214047;23;20450;-74
2023/03/20 03:06:55;;;;;;;0.45;0.45;;;8.10;99.90;;;;;;6214253;23;20083;-74
2023/03/20 03:09:29;;;;;;;0.60;0.60;;;8.10;99.90;;;;;;6214783;23;20012;-74
2023/03/20 03:12:02;;;;;;;0.60;0.60;;;8.10;99.90;;;;;;6214794;23;20024;-74
2023/03/20 03:14:41;;;;;;;0.60;0.60;;;8.10;99.90;;;;;;6216600;23;20009;-74
2023/03/20 03:17:08;;;;;;;0.70;0.70;;;8.10;99.90;;;;;;6216418;23;20024;-74
2023/03/20 03:19:36;;;;;;;0.60;0.60;;;8.10;99.90;;;;;;6216293;23;20453;-74
2023/03/20 03:22:03;;;;;;;0.60;0.60;;;8.00;99.90;;;;;;6214625;23;20016;-74
2023/03/20 03:24:30;;;;;;;0.57;0.57;;;8.10;99.90;;;;;;6216456;23;20012;-75
2023/03/20 03:27:02;;;;;;;0.60;0.60;;;8.00;99.90;;;;;;6216086;23;20013;-74
2023/03/20 03:29:32;;;;;;;0.60;0.60;;;8.00;99.90;;;;;;6214580;23;20048;-74
2023/03/20 03:32:01;;;;;;;0.40;0.40;;;8.00;99.90;;;;;;6189501;23;20044;-74
2023/03/20 03:34:27;;;;;;;0.50;0.50;;;8.10;99.90;;;;;;6214672;23;20016;-74
2023/03/20 03:37:12;;;;;;;0.40;0.40;;;8.00;99.90;;;;;;6214746;23;20015;-74
2023/03/20 03:39:53;;;;;;;0.60;0.60;;;8.00;99.90;;;;;;6214471;23;20016;-74
2023/03/20 03:42:38;;;;;;;0.57;0.57;;;8.10;99.90;;;;;;6216314;23;20135;-74
2023/03/20 03:45:21;;;;;;;0.50;0.50;;;8.10;99.90;;;;;;6214457;23;20019;-74
2023/03/20 03:47:52;;;;;;;0.60;0.60;;;8.10;99.90;;;;;;6214411;23;20027;-74
2023/03/20 03:50:27;;;;;;;0.63;0.63;;;8.10;99.90;;;;;;6216026;23;20013;-74
2023/03/20 03:52:58;;;;;;;0.60;0.60;;;8.10;99.90;;;;;;6216277;23;20012;-74
2023/03/20 03:55:28;;;;;;;0.40;0.40;;;8.10;99.90;;;;;;6216035;23;20016;-74
2023/03/20 03:57:56;;;;;;;;;;;8.10;99.90;;;;;;6216527;23;20017;-74
2023/03/20 04:00:25;;;;;;;0.50;0.50;;;8.10;99.90;;;;;;6216226;23;19990;-74
2023/03/20 04:02:54;;;;;;;0.50;0.50;;;8.10;99.90;;;;;;6189294;23;20009;-74
2023/03/20 04:05:22;;;;;;;0.50;0.50;;;8.00;99.90;;;;;;6216382;23;20009;-74
2023/03/20 04:07:52;;;;;;;0.50;0.50;;;8.00;99.90;;;;;;6214292;23;20236;-74
2023/03/20 04:10:18;;;;;;;0.60;0.60;;;8.00;99.90;;;;;;6214380;23;20013;-74
2023/03/20 04:12:44;;;;;;;0.40;0.40;;;8.20;99.90;;;;;;6189221;23;20067;-74
2023/03/20 04:15:12;;;;;;;0.50;0.50;;;8.20;99.90;;;;;;6240023;23;20319;-74
2023/03/20 04:17:39;;;;;;;0.60;0.60;;;8.10;99.90;;;;;;6189432;23;20493;-74
2023/03/20 04:20:05;;;;;;;0.50;0.50;;;8.10;99.90;;;;;;6218425;23;20005;-74
2023/03/20 04:22:33;;;;;;;0.40;0.40;;;8.10;99.90;;;;;;6217783;23;20027;-74
2023/03/20 04:25:01;;;;;;;0.43;0.43;;;8.10;99.90;;;;;;6216322;23;20058;-74
2023/03/20 04:27:27;;;;;;;0.50;0.50;;;8.10;99.90;;;;;;6218151;23;20051;-74
2023/03/20 04:29:53;;;;;;;0.50;0.50;;;8.10;99.90;;;;;;6217806;23;20012;-74
2023/03/20 04:32:19;;;;;;;0.43;0.43;;;8.20;99.90;;;;;;6216253;23;20017;-74
2023/03/20 04:34:44;;;;;;;0.47;0.47;;;8.10;99.90;;;;;;6217864;23;20088;-74
2023/03/20 04:37:10;;;;;;;0.60;0.60;;;8.10;99.90;;;;;;6217632;23;20012;-74
2023/03/20 04:39:36;;;;;;;0.32;0.32;;;8.20;99.90;;;;;;6217978;23;20043;-74
2023/03/20 04:42:03;;;;;;;0.40;0.40;;;8.20;99.90;;;;;;6217662;23;20434;-74
2023/03/20 04:44:29;;;;;;;0.40;0.40;;;8.20;99.90;;;;;;6217074;23;20004;-74
2023/03/20 04:46:55;;;;;;;0.40;0.40;;;8.20;99.90;;;;;;6218364;23;20414;-74
2023/03/20 04:49:20;;;;;;;0.50;0.50;;;8.20;99.90;;;;;;6217651;23;20341;-74
2023/03/20 04:51:46;;;;;;;0.50;0.50;;;8.20;99.90;;;;;;6217559;23;20012;-74
2023/03/20 04:54:11;;;;;;;0.40;0.40;;;8.10;99.90;;;;;;6217288;23;20433;-73
2023/03/20 04:56:37;;;;;;;0.50;0.50;;;8.10;99.90;;;;;;6217930;23;20017;-74
2023/03/20 04:59:03;;;;;;;0.50;0.50;;;8.20;99.90;;;;;;6217482;23;20422;-74
2023/03/20 05:01:28;;;;;;;0.50;0.50;;;8.10;99.90;;;;;;6190854;23;20023;-74
2023/03/20 05:03:59;;;;;;;0.50;0.50;;;8.10;99.90;;;;;;6217869;23;20047;-74
2023/03/20 05:06:26;;;;;;;0.40;0.40;;;8.10;99.90;;;;;;6217812;23;20017;-74
2023/03/20 05:08:51;;;;;;;0.50;0.50;;;8.10;99.90;;;;;;6217776;23;20319;-73
2023/03/20 05:11:17;;;;;;;0.50;0.50;;;8.10;99.90;;;;;;6215717;23;20020;-73
2023/03/20 05:13:43;;;;;;;0.50;0.50;;;8.10;99.90;;;;;;6215659;23;20016;-73
2023/03/20 05:16:08;;;;;;;0.50;0.50;;;8.10;99.90;;;;;;6217579;23;20016;-73
2023/03/20 05:18:34;;;;;;;0.60;0.60;;;8.10;99.90;;;;;;6217541;23;20024;-73
2023/03/20 05:21:01;;;;;;;0.50;0.50;;;8.10;99.90;;;;;;6217615;23;20377;-73
2023/03/20 05:23:27;;;;;;;0.50;0.50;;;8.10;99.90;;;;;;6217573;23;20005;-73
2023/03/20 05:25:52;;;;;;;0.45;0.45;;;8.10;99.90;;;;;;6215747;23;20319;-73
2023/03/20 05:28:18;;;;;;;0.50;0.50;;;8.10;99.90;;;;;;6215651;23;20386;-73
2023/03/20 05:30:44;;;;;;;0.50;0.50;;;8.10;99.90;;;;;;6216886;23;20009;-73
2023/03/20 05:33:09;;;;;;;0.57;0.57;;;8.00;99.90;;;;;;6215571;23;20342;-75
2023/03/20 05:35:35;;;;;;;0.50;0.50;;;8.10;99.90;;;;;;6190583;23;20024;-74
2023/03/20 05:38:01;;;;;;;0.38;0.38;;;8.00;99.90;;;;;;6241170;23;20092;-68
2023/03/20 05:40:26;;;;;;;0.40;0.40;;;8.00;99.90;;;;;;6190483;23;20043;-69
2023/03/20 05:42:52;;;;;;;0.30;0.30;;;8.10;99.90;;;;;;6215606;23;20104;-69
2023/03/20 05:45:18;;;;;;;0.40;0.40;;;8.00;99.90;;;;;;6241180;23;20013;-68
2023/03/20 05:47:44;;;;;;;0.50;0.50;;;8.00;99.90;;;;;;6217423;23;20009;-70
2023/03/20 05:50:11;;;;;;;0.40;0.40;;;8.00;99.90;;;;;;6215572;23;20313;-70
2023/03/20 05:52:36;;;;;;;0.43;0.43;;;8.00;99.90;;;;;;6215537;23;20036;-70
2023/03/20 05:55:02;;;;;;;0.40;0.40;;;8.00;99.90;;;;;;6217048;23;20012;-70
2023/03/20 05:57:28;;;;;;;0.50;0.50;;;8.00;99.90;;;;;;6215345;23;20019;-71
2023/03/20 05:59:54;;;;;;;0.40;0.40;;;8.00;99.90;;;;;;6217367;23;20104;-70
2023/03/20 06:02:19;;;;;;;0.50;0.50;;;7.90;99.90;;;;;;6217252;23;20080;-70
2023/03/20 06:04:45;;;;;;;0.40;0.40;;;8.00;99.90;;;;;;6215529;23;20127;-71
2023/03/20 06:07:11;;;;;;;0.40;0.40;;;8.00;99.90;;;;;;6217952;23;20008;-70
2023/03/20 06:09:36;;;;;;;0.40;0.40;;;8.00;99.90;;;;;;6215485;23;20012;-70
2023/03/20 06:12:02;;;;;;;0.50;0.50;;;8.00;99.90;;;;;;6215387;23;20322;-70
2023/03/20 06:14:28;;;;;;;0.50;0.50;;;8.10;99.90;;;;;;6216785;23;20016;-70
2023/03/20 06:16:53;;;;;;;0.55;0.55;;;8.00;99.90;;;;;;6215180;23;20012;-70
2023/03/20 06:19:20;;;;;;;0.40;0.40;;;8.00;99.90;;;;;;6217290;23;20116;-76
2023/03/20 06:21:47;;;;;;;0.40;0.40;;;8.10;99.90;;;;;;6215230;23;20048;-73
2023/03/20 06:24:12;;;;;;;0.40;0.40;;;8.10;99.90;;;;;;6215513;23;20016;-70
2023/03/20 06:26:38;;;;;;;0.43;0.43;;;8.10;99.90;;;;;;6216862;23;20013;-70
2023/03/20 06:29:04;;;;;;;0.40;0.40;;;8.00;99.90;;;;;;6217058;23;20008;-70
2023/03/20 06:31:29;;;;;;;0.40;0.40;;;8.10;99.90;;;;;;6216957;23;20040;-70
2023/03/20 06:33:56;;;;;;;0.40;0.40;;;8.20;99.90;;;;;;6215049;23;20056;-72
2023/03/20 06:36:22;;;;;;;0.55;0.55;;;8.20;99.90;;;;;;6217062;23;20100;-71
2023/03/20 06:38:48;;;;;;;0.50;0.50;;;8.10;99.90;;;;;;6215030;23;20057;-70
2023/03/20 06:41:14;;;;;;;0.40;0.40;;;8.10;99.90;;;;;;6240546;23;20420;-70
2023/03/20 06:43:41;;;;;;;0.47;0.47;;;8.10;99.90;;;;;;6216918;23;20012;-71
2023/03/20 06:46:07;;;;;;;0.40;0.40;;;8.10;99.90;;;;;;6216734;23;20016;-69
2023/03/20 06:48:33;;;;;;;0.50;0.50;;;8.20;99.90;;;;;;6216992;23;20020;-70
2023/03/20 06:50:59;;;;;;;0.50;0.50;;;8.30;99.90;;;;;;6217070;23;20012;-70
2023/03/20 06:53:25;;;;;;;0.57;0.57;;;8.30;99.90;;;;;;6216866;23;20009;-70
2023/03/20 06:55:51;;;;;;;0.40;0.40;;;8.20;99.90;;;;;;6214621;23;20023;-69
2023/03/20 06:58:17;;;;;;;0.50;0.50;;;8.30;99.90;;;;;;6216871;23;20044;-70
2023/03/20 07:00:43;;;;;;;0.40;0.40;;;8.30;99.90;;;;;;6216730;23;20009;-70
2023/03/20 07:03:10;;;;;;;0.50;0.50;;;8.30;99.90;;;;;;6214951;23;20039;-69
2023/03/20 07:05:37;;;;;;;0.40;0.40;;;8.30;99.90;;;;;;6189998;23;20021;-69
2023/03/20 07:08:03;;;;;;;0.40;0.40;;;8.40;99.90;;;;;;6214771;23;20017;-70
2023/03/20 07:10:28;;;;;;;0.47;0.47;;;8.40;99.90;;;;;;6214862;23;20016;-70
2023/03/20 07:12:54;;;;;;;0.40;0.40;;;8.40;99.90;;;;;;6214731;23;20019;-69
2023/03/20 07:15:20;;;;;;;0.50;0.50;;;8.40;99.90;;;;;;6214619;23;20028;-70
2023/03/20 07:17:46;;;;;;;0.50;0.50;;;8.50;99.90;;;;;;6215582;23;20016;-69
2023/03/20 07:20:12;;;;;;;0.50;0.50;;;8.40;99.90;;;;;;6214742;23;20342;-70
2023/03/20 07:22:40;;;;;;;0.40;0.40;;;8.40;99.90;;;;;;6216555;23;20046;-69
2023/03/20 07:25:07;;;;;;;0.47;0.47;;;8.40;99.90;;;;;;6214645;23;20507;-69
2023/03/20 07:27:32;;;;;;;0.50;0.50;;;8.40;99.90;;;;;;6214614;23;20116;-69
2023/03/20 07:29:58;;;;;;;0.40;0.40;;;8.50;99.90;;;;;;6214636;23;20012;-69
2023/03/20 07:32:24;;;;;;;0.50;0.50;;;8.40;99.90;;;;;;6216424;23;20017;-69
2023/03/20 07:34:49;;;;;;;0.57;0.57;;;8.50;99.90;;;;;;6239872;23;20013;-69
2023/03/20 07:37:16;;;;;;;0.50;0.50;;;8.50;99.90;;;;;;6214383;23;20091;-69
2023/03/20 07:39:41;;;;;;;0.40;0.40;;;8.50;99.90;;;;;;6189379;23;20020;-69
2023/03/20 07:42:07;;;;;;;0.43;0.43;;;8.50;99.90;;;;;;6216372;23;20017;-69
2023/03/20 07:44:33;;;;;;;0.93;0.52;;;8.50;99.90;;;;;;6216009;23;20333;-68
2023/03/20 07:46:58;;;;;;;0.50;0.50;;;8.50;99.90;;;;;;6240443;23;20012;-70
2023/03/20 07:49:25;;;;;;;0.50;0.50;;;8.50;99.90;;;;;;6216107;23;20017;-70
2023/03/20 07:51:53;;;;;;;0.50;0.50;;;8.60;99.90;;;;;;6216153;23;20330;-70
2023/03/20 07:54:19;;;;;;;0.50;0.50;;;8.50;99.90;;;;;;6214041;23;20025;-70
2023/03/20 07:56:44;;;;;;;0.52;0.52;;;8.60;99.90;;;;;;6240273;23;20079;-70
2023/03/20 07:59:11;;;;;;;0.40;0.40;;;8.60;99.90;;;;;;6216195;23;20013;-70
2023/03/20 08:01:37;;;;;;;0.47;0.47;;;8.60;99.90;;;;;;6189279;23;20043;-70
2023/03/20 08:04:03;;;;;;;0.50;0.50;;;8.70;99.90;;;;;;6214362;23;20008;-69
2023/03/20 08:06:28;;;;;;;0.40;0.40;;;8.60;99.90;;;;;;6214380;23;20016;-70
2023/03/20 08:08:54;;;;;;;0.50;0.50;;;8.70;99.90;;;;;;6214236;23;20043;-70
2023/03/20 08:11:20;;;;;;;0.50;0.50;;;8.70;99.90;;;;;;6215114;23;20052;-70
2023/03/20 08:13:46;;;;;;;0.50;0.50;;;8.80;99.90;;;;;;6216244;23;20453;-70
2023/03/20 08:16:11;;;;;;;0.50;0.50;;;8.80;99.90;;;;;;6239845;23;20074;-70
2023/03/20 08:18:37;;;;;;;0.50;0.50;;;8.80;99.90;;;;;;6216174;23;20032;-70
2023/03/20 08:21:04;;;;;;;0.40;0.40;;;8.80;99.90;;;;;;6216246;23;20036;-70
2023/03/20 08:23:29;;;;;;;0.50;0.50;;;8.80;99.90;;;;;;6214303;23;20009;-70
2023/03/20 08:25:55;;;;;;;0.60;0.60;;;8.80;99.90;;;;;;6214309;23;20114;-70
2023/03/20 08:28:22;;;;;;;0.50;0.50;;;8.80;99.90;;;;;;6240001;23;20047;-70
2023/03/20 08:30:47;;;;;;;0.40;0.40;;;8.80;99.90;;;;;;6216044;23;20004;-70
2023/03/20 08:33:15;;;;;;;0.50;0.50;;;8.80;99.90;;;;;;6239811;23;20381;-70
2023/03/20 08:35:42;;;;;;;0.50;0.50;;;8.90;99.90;;;;;;6216127;23;20004;-70
2023/03/20 08:38:11;;;;;;;0.40;0.40;;;9.00;99.90;;;;;;6216087;23;20019;-70
2023/03/20 08:40:40;;;;;;;0.55;0.55;;;9.00;99.90;;;;;;6188985;23;20013;-70
2023/03/20 08:43:06;;;;;;;0.57;0.57;;;9.10;99.90;;;;;;6214077;23;20027;-70
2023/03/20 08:45:32;;;;;;;0.60;0.60;;;9.10;99.90;;;;;;6214057;23;20040;-70
2023/03/20 08:47:58;;;;;;;0.45;0.45;;;9.10;99.90;;;;;;6214101;23;20019;-70
2023/03/20 08:50:23;;;;;;;0.40;0.40;;;9.20;99.90;;;;;;6215807;23;20080;-70
2023/03/20 08:52:49;;;;;;;0.50;0.50;;;9.20;99.90;;;;;;6214078;23;20088;-71
2023/03/20 08:55:16;;;;;;;0.40;0.40;;;9.20;99.90;;;;;;6213894;23;20055;-70
2023/03/20 08:57:41;;;;;;;0.40;0.40;;;9.30;99.90;;;;;;6214496;23;20016;-70
2023/03/20 09:00:09;;;;;;;0.47;0.47;;;9.40;99.90;;;;;;6215931;23;20009;-70
2023/03/20 09:02:35;;;;;;;0.50;0.50;;;9.50;99.90;;;;;;6214024;23;20398;-70
2023/03/20 09:05:01;;;;;;;0.50;0.50;;;9.50;99.90;;;;;;6215476;23;20373;-70
2023/03/20 09:07:27;;;;;;;0.45;0.45;;;9.50;99.90;;;;;;6215975;23;20017;-71
2023/03/20 09:09:52;;;;;;;0.60;0.60;;;9.60;99.90;;;;;;6217762;23;20012;-70
2023/03/20 09:12:18;;;;;;;0.43;0.43;;;9.60;99.90;;;;;;6218210;23;20314;-70
2023/03/20 09:14:44;;;;;;;0.50;0.50;;;9.50;99.90;;;;;;6217979;23;20016;-71
2023/03/20 09:17:10;;;;;;;0.32;0.32;;;9.50;99.90;;;;;;6217578;23;20017;-71
2023/03/20 09:19:41;;;;;;;0.43;0.43;;;9.50;99.90;;;;;;6217747;23;20376;-70
2023/03/20 09:22:07;;;;;;;0.47;0.47;;;9.60;99.90;;;;;;6215801;23;20423;-70
2023/03/20 09:24:33;;;;;;;0.50;0.50;;;9.40;99.90;;;;;;6215799;23;20055;-70
2023/03/20 09:26:59;;;;;;;0.40;0.40;;;9.50;99.90;;;;;;6215664;23;20096;-70
2023/03/20 09:29:25;;;;;;;0.38;0.38;;;9.60;99.90;;;;;;6217606;23;20379;-70
2023/03/20 09:31:53;;;;;;;0.43;0.43;;;9.80;99.90;;;;;;6217215;23;20369;-70
2023/03/20 09:34:18;;;;;;;0.40;0.40;;;9.80;99.90;;;;;;6217621;23;20028;-70
2023/03/20 09:36:44;;;;;;;0.43;0.43;;;9.90;99.90;;;;;;6215685;23;20441;-70
2023/03/20 09:39:10;;;;;;;0.50;0.50;;;9.90;99.90;;;;;;6217471;23;20079;-71
2023/03/20 09:41:36;;;;;;;0.40;0.40;;;10.00;99.90;;;;;;6215601;23;20173;-70
2023/03/20 09:44:11;;;;;;;0.40;0.40;;;9.90;99.90;;;;;;6217463;23;20012;-70
2023/03/20 09:47:08;;;;;;;0.47;0.47;;;9.90;99.90;;;;;;6215723;23;20095;-70
2023/03/20 09:49:47;;;;;;;0.50;0.50;;;10.10;99.90;;;;;;6217508;23;20015;-71
2023/03/20 09:52:51;;;;;;;0.50;0.50;;;10.20;99.90;;;;;;6217404;23;20009;-70
2023/03/20 09:55:21;;;;;;;0.47;0.47;;;10.30;99.90;;;;;;6216998;23;20092;-70
2023/03/20 09:57:53;;;;;;;0.40;0.40;;;10.40;99.90;;;;;;6216882;23;20456;-70
2023/03/20 10:00:23;;;;;;;0.40;0.40;;;10.50;99.90;;;;;;6215400;23;20456;-71
2023/03/20 10:02:53;;;;;;;0.40;0.40;;;10.60;99.90;;;;;;6217849;23;20054;-71
2023/03/20 10:05:31;;;;;;;0.40;0.40;;;10.70;99.90;;;;;;6217394;23;20009;-70
2023/03/20 10:08:00;;;;;;;0.40;0.40;;;10.80;99.90;;;;;;6216902;23;20083;-71
2023/03/20 10:10:47;;;;;;;0.50;0.50;;;10.80;99.90;;;;;;6216800;23;20461;-71
2023/03/20 10:13:24;;;;;;;0.40;0.40;;;10.90;99.90;;;;;;6217247;23;20260;-70
2023/03/20 10:16:22;;;;;;;0.50;0.50;;;10.80;99.90;;;;;;6216373;23;20008;-71
2023/03/20 10:19:00;;;;;;;0.40;0.40;;;10.70;99.90;;;;;;6215277;23;20493;-70
2023/03/20 10:21:47;;;;;;;0.50;0.50;;;10.60;99.90;;;;;;6241111;23;20008;-70
2023/03/20 10:24:20;;;;;;;0.40;0.40;;;10.60;99.90;;;;;;6217091;23;20360;-70
2023/03/20 10:26:51;;;;;;;0.40;0.40;;;10.60;99.90;;;;;;6217722;23;20337;-70
2023/03/20 10:29:17;;;;;;;0.40;0.40;;;10.70;99.90;;;;;;6217423;23;20017;-70
2023/03/20 10:32:06;;;;;;;0.30;0.30;;;10.80;99.90;;;;;;6215061;23;20023;-70
2023/03/20 10:34:56;;;;;;;0.45;0.45;;;10.90;99.90;;;;;;6216747;23;20067;-70
2023/03/20 10:37:22;;;;;;;0.40;0.40;;;11.00;99.90;;;;;;6216918;23;20008;-70
2023/03/20 10:40:13;;;;;;;0.50;0.50;;;11.00;99.90;;;;;;6240724;23;20015;-70
2023/03/20 10:42:43;;;;;;;0.40;0.40;;;11.10;99.90;;;;;;6216898;23;20005;-70
2023/03/20 10:45:26;;;;;;;0.40;0.40;;;11.00;99.90;;;;;;6217201;23;20024;-71
2023/03/20 10:47:53;;;;;;;0.43;0.43;;;10.70;99.90;;;;;;6216854;23;20079;-70
2023/03/20 10:50:26;;;;;;;0.40;0.40;;;10.50;99.90;;;;;;6216861;23;20019;-71
2023/03/20 10:52:54;;;;;;;0.40;0.40;;;10.50;99.90;;;;;;6216554;23;20016;-70
2023/03/20 10:55:27;;;;;;;0.40;0.40;;;10.50;99.90;;;;;;6216534;23;20028;-70
2023/03/20 10:58:22;;;;;;;0.40;0.40;;;10.40;99.90;;;;;;6216536;23;20017;-70
2023/03/20 11:00:48;;;;;;;0.50;0.50;;;10.30;99.90;;;;;;6214624;23;20017;-70
2023/03/20 11:03:22;;;;;;;0.50;0.50;;;10.30;99.90;;;;;;6216468;23;20009;-70
2023/03/20 11:05:54;;;;;;;0.50;0.50;;;10.30;99.90;;;;;;6214904;23;20341;-70
2023/03/20 11:08:23;;;;;;;0.40;0.40;;;10.20;99.90;;;;;;6214752;23;20414;-70
2023/03/20 11:10:59;;;;;;;0.45;0.45;;;10.20;99.90;;;;;;6214773;23;20012;-70
2023/03/20 11:13:37;;;;;;;0.50;0.50;;;10.20;99.90;;;;;;6216646;23;20017;-70
2023/03/20 11:16:28;;;;;;;0.40;0.40;;;10.30;99.90;;;;;;6216535;23;20136;-70
2023/03/20 11:18:54;;;;;;;0.50;0.50;;;10.20;99.90;;;;;;6216502;23;20012;-70
2023/03/20 11:21:30;;;;;;;0.50;0.50;;;10.10;99.90;;;;;;6214852;23;20291;-70
2023/03/20 11:23:55;;;;;;;0.50;0.50;;;10.00;99.90;;;;;;6216491;23;20163;-70
2023/03/20 11:26:34;;;;;;;0.52;0.52;;;9.90;99.90;;;;;;6216521;23;20012;-70
2023/03/20 11:29:00;;;;;;;0.50;0.50;;;9.90;99.90;;;;;;6216169;23;20012;-70
2023/03/20 11:31:33;;;;;;;0.40;0.40;;;10.00;99.90;;;;;;6214617;23;20017;-70
2023/03/20 11:34:14;;;;;;;0.50;0.50;;;9.90;99.90;;;;;;6214571;23;20013;-71
2023/03/20 11:36:52;;;;;;;0.50;0.50;;;10.00;99.90;;;;;;6214450;23;20445;-71
2023/03/20 11:39:36;;;;;;;0.55;0.55;;;10.00;99.90;;;;;;6216510;23;20387;-71
2023/03/20 11:42:02;;;;;;;0.45;0.45;;;10.00;99.90;;;;;;6216171;23;20012;-70
2023/03/20 11:44:30;;;;;;;0.43;0.43;;;10.10;99.90;;;;;;6216467;23;20039;-71
2023/03/20 11:47:04;;;;;;;0.30;0.30;;;10.10;99.90;;;;;;6216105;23;20031;-70
2023/03/20 11:49:32;;;;;;;0.43;0.43;;;10.00;99.90;;;;;;6217130;23;20020;-70
2023/03/20 11:52:21;;;;;;;0.50;0.50;;;10.10;99.90;;;;;;6216458;23;20084;-71
2023/03/20 11:54:51;;;;;;;0.43;0.35;;;10.10;99.90;;;;;;6216699;23;20137;-71
2023/03/20 11:57:34;;;;;;;0.55;0.55;;;10.10;99.90;;;;;;6216554;23;20036;-71
2023/03/20 12:00:03;;;;;;;0.30;0.30;;;10.00;99.90;;;;;;6214409;23;20032;-71
2023/03/20 12:02:29;;;;;;;0.50;0.50;;;10.00;99.90;;;;;;6239733;23;20051;-71
2023/03/20 12:04:59;;;;;;;0.40;0.40;;;9.90;99.90;;;;;;6216208;23;20326;-71
2023/03/20 12:07:31;;;;;;;0.45;0.45;;;10.00;99.90;;;;;;6214516;23;20130;-71
2023/03/20 12:10:06;;;;;;;0.35;0.35;;;10.00;99.90;;;;;;6216133;23;20115;-73
2023/03/20 12:12:52;;;;;;;0.50;0.50;;;10.00;99.90;;;;;;6216216;23;20075;-72
2023/03/20 12:15:23;;;;;;;0.40;0.40;;;9.90;99.90;;;;;;6216267;23;20035;-71
2023/03/20 12:18:04;;;;;;;0.40;0.40;;;9.90;99.90;;;;;;6216153;23;20016;-71
2023/03/20 12:21:04;;;;;;;0.50;0.50;;;9.80;99.90;;;;;;6215979;23;20040;-72
2023/03/20 12:24:03;;;;;;;0.40;0.40;;;9.80;99.90;;;;;;6216134;23;20019;-71
2023/03/20 12:26:51;;;;;;;0.47;0.47;;;9.90;99.90;;;;;;6239953;23;20084;-71
2023/03/20 12:29:37;;;;;;;0.40;0.40;;;9.90;99.90;;;;;;6214348;23;20017;-71
2023/03/20 12:32:33;;;;;;;0.40;0.40;;;9.90;99.90;;;;;;6215783;23;20437;-72
2023/03/20 12:35:09;;;;;;;0.40;0.40;;;9.80;99.90;;;;;;6199591;23;20036;-72
2023/03/20 12:37:35;;;;;;;0.40;0.40;;;9.80;99.90;;;;;;6215673;23;20017;-71
2023/03/20 12:40:03;;;;;;;0.40;0.40;;;9.80;99.90;;;;;;6217514;23;20019;-71
2023/03/20 12:42:45;;;;;;;0.40;0.40;;;9.90;99.90;;;;;;6218076;23;20015;-71
2023/03/20 12:45:18;;;;;;;0.40;0.40;;;9.90;99.90;;;;;;6218165;23;20086;-71
2023/03/20 12:47:46;;;;;;;0.32;0.32;;;10.00;99.90;;;;;;6218111;23;20013;-71
2023/03/20 12:50:24;;;;;;;0.50;0.50;;;9.90;99.90;;;;;;6217723;23;20020;-71
2023/03/20 12:52:55;;;;;;;0.40;0.40;;;10.00;99.90;;;;;;6218019;23;20334;-71
2023/03/20 12:55:57;;;;;;;0.40;0.40;;;9.90;99.90;;;;;;6217547;23;20020;-71
2023/03/20 12:58:43;;;;;;;0.40;0.40;;;9.90;99.90;;;;;;6183694;23;20050;-71
2023/03/20 13:01:21;;;;;;;0.40;0.40;;;9.90;99.90;;;;;;6217927;23;20051;-71
2023/03/20 13:04:06;;;;;;;0.40;0.40;;;9.70;99.90;;;;;;6216053;23;20462;-71
2023/03/20 13:06:53;;;;;;;0.40;0.40;;;9.70;99.90;;;;;;6241605;23;20083;-71
2023/03/20 13:09:49;;;;;;;0.40;0.40;;;9.70;99.90;;;;;;6217519;23;20377;-71
2023/03/20 13:12:40;;;;;;;0.50;0.50;;;9.70;99.90;;;;;;6217804;23;20016;-71
2023/03/20 13:15:15;;;;;;;0.40;0.40;;;9.80;99.90;;;;;;6171237;23;20020;-71